sensor_id;sensor_type;location;lat;lon;timestamp;P1;durP1;ratioP1;P2;durP2;ratioP2
36931;SDS011;22847;42.654;23.370;2024-01-25T00:00:29;22.52;;;10.98;;
36931;SDS011;22847;42.654;23.370;2024-01-25T00:02:54;30.98;;;13.30;;
36931;SDS011;22847;42.654;23.370;2024-01-25T00:05:20;28.25;;;14.00;;
36931;SDS011;22847;42.654;23.370;2024-01-25T00:07:48;30.38;;;14.10;;
36931;SDS011;22847;42.654;23.370;2024-01-25T00:10:16;35.08;;;15.93;;
36931;SDS011;22847;42.654;23.370;2024-01-25T00:12:43;28.90;;;14.45;;
36931;SDS011;22847;42.654;23.370;2024-01-25T00:15:09;31.35;;;14.43;;
36931;SDS011;22847;42.654;23.370;2024-01-25T00:17:35;28.88;;;13.45;;
36931;SDS011;22847;42.654;23.370;2024-01-25T00:20:01;26.58;;;11.70;;
36931;SDS011;22847;42.654;23.370;2024-01-25T00:22:27;22.27;;;11.40;;
36931;SDS011;22847;42.654;23.370;2024-01-25T00:24:52;24.75;;;13.15;;
36931;SDS011;22847;42.654;23.370;2024-01-25T00:27:18;34.28;;;14.20;;
36931;SDS011;22847;42.654;23.370;2024-01-25T00:29:43;30.67;;;13.65;;
36931;SDS011;22847;42.654;23.370;2024-01-25T00:32:09;30.25;;;12.80;;
36931;SDS011;22847;42.654;23.370;2024-01-25T00:34:34;22.00;;;12.00;;
36931;SDS011;22847;42.654;23.370;2024-01-25T00:37:00;23.27;;;12.27;;
36931;SDS011;22847;42.654;23.370;2024-01-25T00:39:26;25.50;;;12.13;;
36931;SDS011;22847;42.654;23.370;2024-01-25T00:41:52;26.55;;;12.60;;
36931;SDS011;22847;42.654;23.370;2024-01-25T00:44:23;21.60;;;12.43;;
36931;SDS011;22847;42.654;23.370;2024-01-25T00:46:49;28.25;;;12.65;;
36931;SDS011;22847;42.654;23.370;2024-01-25T00:49:17;24.52;;;12.15;;
36931;SDS011;22847;42.654;23.370;2024-01-25T00:51:44;25.48;;;11.13;;
36931;SDS011;22847;42.654;23.370;2024-01-25T00:54:12;25.48;;;11.20;;
36931;SDS011;22847;42.654;23.370;2024-01-25T00:56:39;22.73;;;12.57;;
36931;SDS011;22847;42.654;23.370;2024-01-25T00:59:05;22.15;;;12.13;;
36931;SDS011;22847;42.654;23.370;2024-01-25T01:01:30;26.08;;;11.93;;
36931;SDS011;22847;42.654;23.370;2024-01-25T01:03:56;27.15;;;12.13;;
36931;SDS011;22847;42.654;23.370;2024-01-25T01:06:23;25.15;;;12.68;;
36931;SDS011;22847;42.654;23.370;2024-01-25T01:08:49;27.73;;;12.77;;
36931;SDS011;22847;42.654;23.370;2024-01-25T01:11:15;22.88;;;12.93;;
36931;SDS011;22847;42.654;23.370;2024-01-25T01:13:41;28.67;;;13.90;;
36931;SDS011;22847;42.654;23.370;2024-01-25T01:16:06;22.65;;;11.82;;
36931;SDS011;22847;42.654;23.370;2024-01-25T01:18:32;24.40;;;12.60;;
36931;SDS011;22847;42.654;23.370;2024-01-25T01:20:57;25.08;;;13.30;;
36931;SDS011;22847;42.654;23.370;2024-01-25T01:23:23;28.17;;;13.18;;
36931;SDS011;22847;42.654;23.370;2024-01-25T01:25:48;28.42;;;14.70;;
36931;SDS011;22847;42.654;23.370;2024-01-25T01:28:14;32.55;;;14.00;;
36931;SDS011;22847;42.654;23.370;2024-01-25T01:30:40;24.88;;;13.13;;
36931;SDS011;22847;42.654;23.370;2024-01-25T01:33:09;25.92;;;13.65;;
36931;SDS011;22847;42.654;23.370;2024-01-25T01:35:35;27.65;;;14.10;;
36931;SDS011;22847;42.654;23.370;2024-01-25T01:38:00;26.20;;;14.23;;
36931;SDS011;22847;42.654;23.370;2024-01-25T01:40:26;27.50;;;12.38;;
36931;SDS011;22847;42.654;23.370;2024-01-25T01:42:58;27.55;;;12.90;;
36931;SDS011;22847;42.654;23.370;2024-01-25T01:47:53;26.05;;;11.60;;
36931;SDS011;22847;42.654;23.370;2024-01-25T01:50:19;24.98;;;11.98;;
36931;SDS011;22847;42.654;23.370;2024-01-25T01:52:46;22.55;;;11.95;;
36931;SDS011;22847;42.654;23.370;2024-01-25T01:55:12;23.40;;;12.20;;
36931;SDS011;22847;42.654;23.370;2024-01-25T01:57:38;24.25;;;12.18;;
36931;SDS011;22847;42.654;23.370;2024-01-25T02:00:05;21.52;;;11.50;;
36931;SDS011;22847;42.654;23.370;2024-01-25T02:02:33;24.48;;;11.25;;
36931;SDS011;22847;42.654;23.370;2024-01-25T02:04:59;22.02;;;10.65;;
36931;SDS011;22847;42.654;23.370;2024-01-25T02:07:25;24.38;;;11.07;;
36931;SDS011;22847;42.654;23.370;2024-01-25T02:09:51;22.42;;;10.70;;
36931;SDS011;22847;42.654;23.370;2024-01-25T02:12:16;22.48;;;11.00;;
36931;SDS011;22847;42.654;23.370;2024-01-25T02:14:42;21.83;;;9.82;;
36931;SDS011;22847;42.654;23.370;2024-01-25T02:17:08;18.38;;;9.60;;
36931;SDS011;22847;42.654;23.370;2024-01-25T02:19:33;22.27;;;9.93;;
36931;SDS011;22847;42.654;23.370;2024-01-25T02:21:59;22.25;;;11.13;;
36931;SDS011;22847;42.654;23.370;2024-01-25T02:24:25;22.17;;;9.90;;
36931;SDS011;22847;42.654;23.370;2024-01-25T02:26:51;24.92;;;11.68;;
36931;SDS011;22847;42.654;23.370;2024-01-25T02:29:16;22.83;;;10.13;;
36931;SDS011;22847;42.654;23.370;2024-01-25T02:31:42;20.50;;;10.63;;
36931;SDS011;22847;42.654;23.370;2024-01-25T02:34:07;24.65;;;11.38;;
36931;SDS011;22847;42.654;23.370;2024-01-25T02:36:33;22.13;;;10.70;;
36931;SDS011;22847;42.654;23.370;2024-01-25T02:38:58;19.55;;;11.25;;
36931;SDS011;22847;42.654;23.370;2024-01-25T02:41:24;21.42;;;10.98;;
36931;SDS011;22847;42.654;23.370;2024-01-25T02:43:49;28.67;;;11.23;;
36931;SDS011;22847;42.654;23.370;2024-01-25T02:46:15;25.75;;;13.13;;
36931;SDS011;22847;42.654;23.370;2024-01-25T02:48:40;31.88;;;14.75;;
36931;SDS011;22847;42.654;23.370;2024-01-25T02:51:06;26.05;;;13.45;;
36931;SDS011;22847;42.654;23.370;2024-01-25T02:53:31;28.08;;;13.40;;
36931;SDS011;22847;42.654;23.370;2024-01-25T02:55:57;30.70;;;13.52;;
36931;SDS011;22847;42.654;23.370;2024-01-25T02:58:22;34.03;;;14.45;;
36931;SDS011;22847;42.654;23.370;2024-01-25T03:00:47;25.65;;;11.77;;
36931;SDS011;22847;42.654;23.370;2024-01-25T03:03:13;29.27;;;12.45;;
36931;SDS011;22847;42.654;23.370;2024-01-25T03:05:38;23.17;;;12.20;;
36931;SDS011;22847;42.654;23.370;2024-01-25T03:08:04;23.90;;;11.43;;
36931;SDS011;22847;42.654;23.370;2024-01-25T03:10:30;23.83;;;11.57;;
36931;SDS011;22847;42.654;23.370;2024-01-25T03:12:55;24.40;;;11.45;;
36931;SDS011;22847;42.654;23.370;2024-01-25T03:15:21;25.63;;;10.68;;
36931;SDS011;22847;42.654;23.370;2024-01-25T03:17:46;18.40;;;9.93;;
36931;SDS011;22847;42.654;23.370;2024-01-25T03:20:12;11.05;;;6.05;;
36931;SDS011;22847;42.654;23.370;2024-01-25T03:22:37;4.50;;;2.63;;
36931;SDS011;22847;42.654;23.370;2024-01-25T03:25:03;2.80;;;1.90;;
36931;SDS011;22847;42.654;23.370;2024-01-25T03:27:28;2.15;;;1.08;;
36931;SDS011;22847;42.654;23.370;2024-01-25T03:29:54;2.40;;;1.38;;
36931;SDS011;22847;42.654;23.370;2024-01-25T03:32:20;2.53;;;1.10;;
36931;SDS011;22847;42.654;23.370;2024-01-25T03:34:45;2.05;;;1.02;;
36931;SDS011;22847;42.654;23.370;2024-01-25T03:37:11;1.27;;;1.13;;
36931;SDS011;22847;42.654;23.370;2024-01-25T03:39:36;2.45;;;1.00;;
36931;SDS011;22847;42.654;23.370;2024-01-25T03:42:01;5.38;;;1.00;;
36931;SDS011;22847;42.654;23.370;2024-01-25T03:44:27;4.22;;;1.02;;
36931;SDS011;22847;42.654;23.370;2024-01-25T03:46:53;1.83;;;1.27;;
36931;SDS011;22847;42.654;23.370;2024-01-25T03:49:18;2.45;;;1.05;;
36931;SDS011;22847;42.654;23.370;2024-01-25T03:51:44;1.67;;;1.08;;
36931;SDS011;22847;42.654;23.370;2024-01-25T03:54:10;3.80;;;1.00;;
36931;SDS011;22847;42.654;23.370;2024-01-25T03:56:35;2.25;;;1.20;;
36931;SDS011;22847;42.654;23.370;2024-01-25T03:59:01;2.83;;;1.50;;
36931;SDS011;22847;42.654;23.370;2024-01-25T04:01:26;4.35;;;1.30;;
36931;SDS011;22847;42.654;23.370;2024-01-25T04:03:52;3.35;;;1.20;;
36931;SDS011;22847;42.654;23.370;2024-01-25T04:06:17;2.17;;;1.27;;
36931;SDS011;22847;42.654;23.370;2024-01-25T04:08:43;2.25;;;1.13;;
36931;SDS011;22847;42.654;23.370;2024-01-25T04:11:08;1.35;;;1.00;;
36931;SDS011;22847;42.654;23.370;2024-01-25T04:13:34;4.00;;;1.65;;
36931;SDS011;22847;42.654;23.370;2024-01-25T04:16:00;2.47;;;1.27;;
36931;SDS011;22847;42.654;23.370;2024-01-25T04:18:26;1.38;;;1.05;;
36931;SDS011;22847;42.654;23.370;2024-01-25T04:20:51;2.45;;;1.50;;
36931;SDS011;22847;42.654;23.370;2024-01-25T04:23:17;3.55;;;1.20;;
36931;SDS011;22847;42.654;23.370;2024-01-25T04:25:42;2.63;;;1.42;;
36931;SDS011;22847;42.654;23.370;2024-01-25T04:28:08;5.70;;;1.10;;
36931;SDS011;22847;42.654;23.370;2024-01-25T04:30:33;4.93;;;1.42;;
36931;SDS011;22847;42.654;23.370;2024-01-25T04:32:59;2.25;;;1.08;;
36931;SDS011;22847;42.654;23.370;2024-01-25T04:35:24;2.72;;;1.42;;
36931;SDS011;22847;42.654;23.370;2024-01-25T04:37:50;4.57;;;1.70;;
36931;SDS011;22847;42.654;23.370;2024-01-25T04:40:15;3.50;;;1.70;;
36931;SDS011;22847;42.654;23.370;2024-01-25T04:42:41;4.32;;;1.60;;
36931;SDS011;22847;42.654;23.370;2024-01-25T04:45:06;3.70;;;1.65;;
36931;SDS011;22847;42.654;23.370;2024-01-25T04:47:32;3.45;;;1.80;;
36931;SDS011;22847;42.654;23.370;2024-01-25T04:49:58;3.35;;;1.83;;
36931;SDS011;22847;42.654;23.370;2024-01-25T04:52:23;3.47;;;1.80;;
36931;SDS011;22847;42.654;23.370;2024-01-25T04:54:49;5.15;;;2.50;;
36931;SDS011;22847;42.654;23.370;2024-01-25T04:57:14;6.68;;;2.88;;
36931;SDS011;22847;42.654;23.370;2024-01-25T04:59:40;5.53;;;3.03;;
36931;SDS011;22847;42.654;23.370;2024-01-25T05:02:05;6.28;;;2.90;;
36931;SDS011;22847;42.654;23.370;2024-01-25T05:04:31;6.20;;;2.95;;
36931;SDS011;22847;42.654;23.370;2024-01-25T05:06:56;6.93;;;3.38;;
36931;SDS011;22847;42.654;23.370;2024-01-25T05:09:22;9.05;;;3.38;;
36931;SDS011;22847;42.654;23.370;2024-01-25T05:11:47;11.90;;;5.53;;
36931;SDS011;22847;42.654;23.370;2024-01-25T05:14:13;11.60;;;2.83;;
36931;SDS011;22847;42.654;23.370;2024-01-25T05:16:39;12.05;;;4.40;;
36931;SDS011;22847;42.654;23.370;2024-01-25T05:19:04;5.63;;;2.70;;
36931;SDS011;22847;42.654;23.370;2024-01-25T05:21:30;4.90;;;2.85;;
36931;SDS011;22847;42.654;23.370;2024-01-25T05:23:55;15.30;;;6.55;;
36931;SDS011;22847;42.654;23.370;2024-01-25T05:26:21;30.08;;;10.88;;
36931;SDS011;22847;42.654;23.370;2024-01-25T05:28:46;10.18;;;4.55;;
36931;SDS011;22847;42.654;23.370;2024-01-25T05:31:12;10.20;;;4.07;;
36931;SDS011;22847;42.654;23.370;2024-01-25T05:33:41;7.47;;;2.50;;
36931;SDS011;22847;42.654;23.370;2024-01-25T05:36:07;9.52;;;3.03;;
36931;SDS011;22847;42.654;23.370;2024-01-25T05:38:33;19.95;;;4.45;;
36931;SDS011;22847;42.654;23.370;2024-01-25T05:40:58;14.20;;;4.88;;
36931;SDS011;22847;42.654;23.370;2024-01-25T05:43:24;3.58;;;1.92;;
36931;SDS011;22847;42.654;23.370;2024-01-25T05:45:50;7.70;;;3.15;;
36931;SDS011;22847;42.654;23.370;2024-01-25T05:48:15;3.33;;;2.00;;
36931;SDS011;22847;42.654;23.370;2024-01-25T05:50:41;7.15;;;3.63;;
36931;SDS011;22847;42.654;23.370;2024-01-25T05:53:06;24.75;;;12.80;;
36931;SDS011;22847;42.654;23.370;2024-01-25T05:55:32;7.50;;;3.28;;
36931;SDS011;22847;42.654;23.370;2024-01-25T05:57:58;4.35;;;2.53;;
36931;SDS011;22847;42.654;23.370;2024-01-25T06:00:23;10.45;;;2.78;;
36931;SDS011;22847;42.654;23.370;2024-01-25T06:02:48;6.60;;;2.83;;
36931;SDS011;22847;42.654;23.370;2024-01-25T06:05:14;6.05;;;2.00;;
36931;SDS011;22847;42.654;23.370;2024-01-25T06:07:40;6.82;;;1.77;;
36931;SDS011;22847;42.654;23.370;2024-01-25T06:10:06;3.67;;;1.80;;
36931;SDS011;22847;42.654;23.370;2024-01-25T06:12:32;4.78;;;2.38;;
36931;SDS011;22847;42.654;23.370;2024-01-25T06:14:58;5.13;;;2.20;;
36931;SDS011;22847;42.654;23.370;2024-01-25T06:17:23;6.43;;;2.25;;
36931;SDS011;22847;42.654;23.370;2024-01-25T06:19:50;2.90;;;2.00;;
36931;SDS011;22847;42.654;23.370;2024-01-25T06:22:15;3.92;;;2.13;;
36931;SDS011;22847;42.654;23.370;2024-01-25T06:24:42;6.10;;;3.08;;
36931;SDS011;22847;42.654;23.370;2024-01-25T06:27:09;10.15;;;2.97;;
36931;SDS011;22847;42.654;23.370;2024-01-25T06:29:34;4.57;;;2.25;;
36931;SDS011;22847;42.654;23.370;2024-01-25T06:32:00;7.68;;;2.78;;
36931;SDS011;22847;42.654;23.370;2024-01-25T06:34:25;10.50;;;3.50;;
36931;SDS011;22847;42.654;23.370;2024-01-25T06:36:51;8.35;;;2.45;;
36931;SDS011;22847;42.654;23.370;2024-01-25T06:39:17;4.65;;;2.22;;
36931;SDS011;22847;42.654;23.370;2024-01-25T06:41:42;8.60;;;2.00;;
36931;SDS011;22847;42.654;23.370;2024-01-25T06:44:08;5.20;;;2.10;;
36931;SDS011;22847;42.654;23.370;2024-01-25T06:46:33;6.18;;;2.15;;
36931;SDS011;22847;42.654;23.370;2024-01-25T06:48:59;10.60;;;2.60;;
36931;SDS011;22847;42.654;23.370;2024-01-25T06:51:24;9.95;;;3.05;;
36931;SDS011;22847;42.654;23.370;2024-01-25T06:53:50;5.18;;;2.10;;
36931;SDS011;22847;42.654;23.370;2024-01-25T06:56:15;14.55;;;2.40;;
36931;SDS011;22847;42.654;23.370;2024-01-25T06:58:41;10.02;;;2.50;;
36931;SDS011;22847;42.654;23.370;2024-01-25T07:01:07;6.68;;;2.22;;
36931;SDS011;22847;42.654;23.370;2024-01-25T07:03:32;6.65;;;2.53;;
36931;SDS011;22847;42.654;23.370;2024-01-25T07:05:58;3.90;;;2.03;;
36931;SDS011;22847;42.654;23.370;2024-01-25T07:08:24;6.75;;;2.38;;
36931;SDS011;22847;42.654;23.370;2024-01-25T07:10:49;8.15;;;2.47;;
36931;SDS011;22847;42.654;23.370;2024-01-25T07:13:15;10.30;;;3.63;;
36931;SDS011;22847;42.654;23.370;2024-01-25T07:15:41;8.80;;;3.30;;
36931;SDS011;22847;42.654;23.370;2024-01-25T07:18:07;11.10;;;2.97;;
36931;SDS011;22847;42.654;23.370;2024-01-25T07:20:32;7.35;;;2.63;;
36931;SDS011;22847;42.654;23.370;2024-01-25T07:22:58;8.13;;;2.78;;
36931;SDS011;22847;42.654;23.370;2024-01-25T07:25:23;8.73;;;2.67;;
36931;SDS011;22847;42.654;23.370;2024-01-25T07:27:49;8.10;;;2.72;;
36931;SDS011;22847;42.654;23.370;2024-01-25T07:30:15;8.02;;;2.40;;
36931;SDS011;22847;42.654;23.370;2024-01-25T07:32:41;9.27;;;2.38;;
36931;SDS011;22847;42.654;23.370;2024-01-25T07:35:10;8.68;;;2.40;;
36931;SDS011;22847;42.654;23.370;2024-01-25T07:37:36;9.02;;;2.65;;
36931;SDS011;22847;42.654;23.370;2024-01-25T07:40:02;5.45;;;2.75;;
36931;SDS011;22847;42.654;23.370;2024-01-25T07:42:30;7.93;;;2.60;;
36931;SDS011;22847;42.654;23.370;2024-01-25T07:44:55;10.50;;;2.63;;
36931;SDS011;22847;42.654;23.370;2024-01-25T07:47:21;9.55;;;3.47;;
36931;SDS011;22847;42.654;23.370;2024-01-25T07:49:47;10.07;;;3.13;;
36931;SDS011;22847;42.654;23.370;2024-01-25T07:52:13;6.68;;;2.90;;
36931;SDS011;22847;42.654;23.370;2024-01-25T07:54:39;15.25;;;3.28;;
36931;SDS011;22847;42.654;23.370;2024-01-25T07:57:04;7.68;;;2.90;;
36931;SDS011;22847;42.654;23.370;2024-01-25T07:59:30;11.57;;;2.88;;
36931;SDS011;22847;42.654;23.370;2024-01-25T08:01:55;9.90;;;3.05;;
36931;SDS011;22847;42.654;23.370;2024-01-25T08:04:21;9.93;;;3.08;;
36931;SDS011;22847;42.654;23.370;2024-01-25T08:06:46;10.38;;;3.47;;
36931;SDS011;22847;42.654;23.370;2024-01-25T08:09:12;15.52;;;5.10;;
36931;SDS011;22847;42.654;23.370;2024-01-25T08:11:37;11.30;;;3.80;;
36931;SDS011;22847;42.654;23.370;2024-01-25T08:14:03;13.43;;;3.28;;
36931;SDS011;22847;42.654;23.370;2024-01-25T08:16:29;11.15;;;3.85;;
36931;SDS011;22847;42.654;23.370;2024-01-25T08:18:54;7.47;;;2.75;;
36931;SDS011;22847;42.654;23.370;2024-01-25T08:21:20;12.05;;;3.25;;
36931;SDS011;22847;42.654;23.370;2024-01-25T08:23:46;7.03;;;3.80;;
36931;SDS011;22847;42.654;23.370;2024-01-25T08:26:12;12.23;;;3.28;;
36931;SDS011;22847;42.654;23.370;2024-01-25T08:28:39;8.40;;;4.00;;
36931;SDS011;22847;42.654;23.370;2024-01-25T08:31:05;8.98;;;2.72;;
36931;SDS011;22847;42.654;23.370;2024-01-25T08:33:31;10.98;;;3.50;;
36931;SDS011;22847;42.654;23.370;2024-01-25T08:35:56;12.98;;;3.97;;
36931;SDS011;22847;42.654;23.370;2024-01-25T08:38:22;12.15;;;2.90;;
36931;SDS011;22847;42.654;23.370;2024-01-25T08:40:48;11.15;;;2.78;;
36931;SDS011;22847;42.654;23.370;2024-01-25T08:43:13;8.57;;;2.92;;
36931;SDS011;22847;42.654;23.370;2024-01-25T08:45:39;8.80;;;2.58;;
36931;SDS011;22847;42.654;23.370;2024-01-25T08:48:04;11.75;;;3.22;;
36931;SDS011;22847;42.654;23.370;2024-01-25T08:50:30;12.98;;;3.10;;
36931;SDS011;22847;42.654;23.370;2024-01-25T08:52:56;9.50;;;3.00;;
36931;SDS011;22847;42.654;23.370;2024-01-25T08:55:21;10.65;;;2.92;;
36931;SDS011;22847;42.654;23.370;2024-01-25T08:57:47;10.05;;;3.45;;
36931;SDS011;22847;42.654;23.370;2024-01-25T09:00:13;10.55;;;3.13;;
36931;SDS011;22847;42.654;23.370;2024-01-25T09:02:40;16.45;;;3.83;;
36931;SDS011;22847;42.654;23.370;2024-01-25T09:05:06;13.55;;;3.63;;
36931;SDS011;22847;42.654;23.370;2024-01-25T09:07:32;7.88;;;3.22;;
36931;SDS011;22847;42.654;23.370;2024-01-25T09:09:58;8.25;;;2.97;;
36931;SDS011;22847;42.654;23.370;2024-01-25T09:12:23;9.23;;;3.22;;
36931;SDS011;22847;42.654;23.370;2024-01-25T09:14:49;10.20;;;2.75;;
36931;SDS011;22847;42.654;23.370;2024-01-25T09:17:14;16.48;;;3.88;;
36931;SDS011;22847;42.654;23.370;2024-01-25T09:19:46;12.57;;;3.45;;
36931;SDS011;22847;42.654;23.370;2024-01-25T09:22:15;8.85;;;3.63;;
36931;SDS011;22847;42.654;23.370;2024-01-25T09:24:42;12.90;;;4.13;;
36931;SDS011;22847;42.654;23.370;2024-01-25T09:27:08;12.48;;;3.40;;
36931;SDS011;22847;42.654;23.370;2024-01-25T09:29:34;16.33;;;3.78;;
36931;SDS011;22847;42.654;23.370;2024-01-25T09:32:00;15.82;;;3.75;;
36931;SDS011;22847;42.654;23.370;2024-01-25T09:34:25;11.90;;;5.47;;
36931;SDS011;22847;42.654;23.370;2024-01-25T09:36:51;14.32;;;3.42;;
36931;SDS011;22847;42.654;23.370;2024-01-25T09:39:16;13.50;;;3.80;;
36931;SDS011;22847;42.654;23.370;2024-01-25T09:41:42;12.35;;;3.65;;
36931;SDS011;22847;42.654;23.370;2024-01-25T09:44:08;10.10;;;3.28;;
36931;SDS011;22847;42.654;23.370;2024-01-25T09:46:34;14.13;;;3.58;;
36931;SDS011;22847;42.654;23.370;2024-01-25T09:49:01;11.63;;;3.85;;
36931;SDS011;22847;42.654;23.370;2024-01-25T09:51:27;11.50;;;3.75;;
36931;SDS011;22847;42.654;23.370;2024-01-25T09:53:59;12.90;;;3.20;;
36931;SDS011;22847;42.654;23.370;2024-01-25T09:56:26;10.30;;;3.63;;
36931;SDS011;22847;42.654;23.370;2024-01-25T09:58:56;9.70;;;3.42;;
36931;SDS011;22847;42.654;23.370;2024-01-25T10:01:22;10.27;;;2.83;;
36931;SDS011;22847;42.654;23.370;2024-01-25T10:03:47;12.25;;;3.28;;
36931;SDS011;22847;42.654;23.370;2024-01-25T10:06:14;11.63;;;3.53;;
36931;SDS011;22847;42.654;23.370;2024-01-25T10:08:40;16.63;;;3.83;;
36931;SDS011;22847;42.654;23.370;2024-01-25T10:11:06;12.45;;;3.50;;
36931;SDS011;22847;42.654;23.370;2024-01-25T10:13:41;12.65;;;3.83;;
36931;SDS011;22847;42.654;23.370;2024-01-25T10:16:14;8.48;;;3.88;;
36931;SDS011;22847;42.654;23.370;2024-01-25T10:18:41;11.85;;;3.65;;
36931;SDS011;22847;42.654;23.370;2024-01-25T10:21:11;11.73;;;4.00;;
36931;SDS011;22847;42.654;23.370;2024-01-25T10:23:38;16.30;;;4.60;;
36931;SDS011;22847;42.654;23.370;2024-01-25T10:26:04;16.67;;;4.93;;
36931;SDS011;22847;42.654;23.370;2024-01-25T10:28:29;14.00;;;4.30;;
36931;SDS011;22847;42.654;23.370;2024-01-25T10:30:59;15.23;;;4.05;;
36931;SDS011;22847;42.654;23.370;2024-01-25T10:33:26;11.55;;;4.05;;
36931;SDS011;22847;42.654;23.370;2024-01-25T10:35:56;10.40;;;3.75;;
36931;SDS011;22847;42.654;23.370;2024-01-25T10:38:36;15.25;;;4.72;;
36931;SDS011;22847;42.654;23.370;2024-01-25T10:41:03;9.77;;;3.38;;
36931;SDS011;22847;42.654;23.370;2024-01-25T10:43:29;11.77;;;3.97;;
36931;SDS011;22847;42.654;23.370;2024-01-25T10:45:58;10.95;;;3.30;;
36931;SDS011;22847;42.654;23.370;2024-01-25T10:48:25;13.32;;;3.70;;
36931;SDS011;22847;42.654;23.370;2024-01-25T10:50:54;14.85;;;4.13;;
36931;SDS011;22847;42.654;23.370;2024-01-25T10:53:21;7.80;;;3.20;;
36931;SDS011;22847;42.654;23.370;2024-01-25T10:55:48;13.32;;;3.95;;
36931;SDS011;22847;42.654;23.370;2024-01-25T10:58:15;11.68;;;3.80;;
36931;SDS011;22847;42.654;23.370;2024-01-25T11:00:41;12.07;;;3.28;;
36931;SDS011;22847;42.654;23.370;2024-01-25T11:03:07;10.68;;;4.05;;
36931;SDS011;22847;42.654;23.370;2024-01-25T11:05:32;12.32;;;3.58;;
36931;SDS011;22847;42.654;23.370;2024-01-25T11:07:58;10.57;;;3.67;;
36931;SDS011;22847;42.654;23.370;2024-01-25T11:10:25;9.55;;;3.83;;
36931;SDS011;22847;42.654;23.370;2024-01-25T11:12:56;17.23;;;3.22;;
36931;SDS011;22847;42.654;23.370;2024-01-25T11:15:34;7.55;;;3.10;;
36931;SDS011;22847;42.654;23.370;2024-01-25T11:18:01;15.07;;;4.45;;
36931;SDS011;22847;42.654;23.370;2024-01-25T11:20:29;11.30;;;3.97;;
36931;SDS011;22847;42.654;23.370;2024-01-25T11:22:58;10.07;;;3.17;;
36931;SDS011;22847;42.654;23.370;2024-01-25T11:25:29;9.97;;;3.07;;
36931;SDS011;22847;42.654;23.370;2024-01-25T11:27:55;10.23;;;2.92;;
36931;SDS011;22847;42.654;23.370;2024-01-25T11:30:21;11.73;;;3.50;;
36931;SDS011;22847;42.654;23.370;2024-01-25T11:32:47;7.82;;;3.40;;
36931;SDS011;22847;42.654;23.370;2024-01-25T11:35:13;11.52;;;3.58;;
36931;SDS011;22847;42.654;23.370;2024-01-25T11:37:47;12.88;;;3.53;;
36931;SDS011;22847;42.654;23.370;2024-01-25T11:40:19;8.05;;;3.13;;
36931;SDS011;22847;42.654;23.370;2024-01-25T11:42:49;12.55;;;3.83;;
36931;SDS011;22847;42.654;23.370;2024-01-25T11:45:15;10.65;;;3.63;;
36931;SDS011;22847;42.654;23.370;2024-01-25T11:47:41;14.18;;;3.80;;
36931;SDS011;22847;42.654;23.370;2024-01-25T11:50:09;10.80;;;3.65;;
36931;SDS011;22847;42.654;23.370;2024-01-25T11:52:36;13.15;;;5.30;;
36931;SDS011;22847;42.654;23.370;2024-01-25T11:55:02;10.55;;;3.20;;
36931;SDS011;22847;42.654;23.370;2024-01-25T11:57:32;9.57;;;2.92;;
36931;SDS011;22847;42.654;23.370;2024-01-25T12:00:02;12.13;;;3.78;;
36931;SDS011;22847;42.654;23.370;2024-01-25T12:02:29;8.00;;;3.10;;
36931;SDS011;22847;42.654;23.370;2024-01-25T12:04:56;12.40;;;3.15;;
36931;SDS011;22847;42.654;23.370;2024-01-25T12:07:22;6.82;;;2.85;;
36931;SDS011;22847;42.654;23.370;2024-01-25T12:10:04;14.45;;;3.83;;
36931;SDS011;22847;42.654;23.370;2024-01-25T12:12:31;14.85;;;3.88;;
36931;SDS011;22847;42.654;23.370;2024-01-25T12:15:00;17.38;;;4.05;;
36931;SDS011;22847;42.654;23.370;2024-01-25T12:17:29;8.38;;;3.00;;
36931;SDS011;22847;42.654;23.370;2024-01-25T12:19:59;12.50;;;2.97;;
36931;SDS011;22847;42.654;23.370;2024-01-25T12:22:28;10.23;;;3.22;;
36931;SDS011;22847;42.654;23.370;2024-01-25T12:24:54;9.20;;;3.00;;
36931;SDS011;22847;42.654;23.370;2024-01-25T12:27:21;11.88;;;3.30;;
36931;SDS011;22847;42.654;23.370;2024-01-25T12:29:48;16.70;;;3.17;;
36931;SDS011;22847;42.654;23.370;2024-01-25T12:32:18;12.00;;;3.22;;
36931;SDS011;22847;42.654;23.370;2024-01-25T12:37:20;15.75;;;4.15;;
36931;SDS011;22847;42.654;23.370;2024-01-25T12:39:46;14.07;;;3.65;;
36931;SDS011;22847;42.654;23.370;2024-01-25T12:42:11;15.55;;;5.03;;
36931;SDS011;22847;42.654;23.370;2024-01-25T12:44:38;17.40;;;5.45;;
36931;SDS011;22847;42.654;23.370;2024-01-25T12:47:04;12.27;;;3.47;;
36931;SDS011;22847;42.654;23.370;2024-01-25T12:49:31;10.48;;;2.90;;
36931;SDS011;22847;42.654;23.370;2024-01-25T12:51:57;12.82;;;3.05;;
36931;SDS011;22847;42.654;23.370;2024-01-25T12:54:22;11.73;;;3.05;;
36931;SDS011;22847;42.654;23.370;2024-01-25T12:56:49;9.43;;;3.22;;
36931;SDS011;22847;42.654;23.370;2024-01-25T12:59:14;13.48;;;3.53;;
36931;SDS011;22847;42.654;23.370;2024-01-25T13:01:40;10.75;;;2.75;;
36931;SDS011;22847;42.654;23.370;2024-01-25T13:04:05;8.73;;;2.85;;
36931;SDS011;22847;42.654;23.370;2024-01-25T13:06:31;8.55;;;2.90;;
36931;SDS011;22847;42.654;23.370;2024-01-25T13:08:56;9.90;;;2.50;;
36931;SDS011;22847;42.654;23.370;2024-01-25T13:11:22;11.52;;;3.35;;
36931;SDS011;22847;42.654;23.370;2024-01-25T13:13:47;11.00;;;2.95;;
36931;SDS011;22847;42.654;23.370;2024-01-25T13:16:13;8.32;;;2.75;;
36931;SDS011;22847;42.654;23.370;2024-01-25T13:18:38;9.30;;;2.78;;
36931;SDS011;22847;42.654;23.370;2024-01-25T13:21:04;9.05;;;3.13;;
36931;SDS011;22847;42.654;23.370;2024-01-25T13:23:29;10.35;;;3.03;;
36931;SDS011;22847;42.654;23.370;2024-01-25T13:25:55;10.20;;;2.80;;
36931;SDS011;22847;42.654;23.370;2024-01-25T13:28:20;12.82;;;3.30;;
36931;SDS011;22847;42.654;23.370;2024-01-25T13:30:46;17.15;;;3.58;;
36931;SDS011;22847;42.654;23.370;2024-01-25T13:33:11;11.35;;;3.35;;
36931;SDS011;22847;42.654;23.370;2024-01-25T13:35:37;10.13;;;2.83;;
36931;SDS011;22847;42.654;23.370;2024-01-25T13:38:02;17.70;;;3.30;;
36931;SDS011;22847;42.654;23.370;2024-01-25T13:40:28;10.73;;;2.95;;
36931;SDS011;22847;42.654;23.370;2024-01-25T13:42:53;15.27;;;3.13;;
36931;SDS011;22847;42.654;23.370;2024-01-25T13:45:20;12.15;;;3.47;;
36931;SDS011;22847;42.654;23.370;2024-01-25T13:47:46;13.27;;;3.42;;
36931;SDS011;22847;42.654;23.370;2024-01-25T13:50:11;12.93;;;3.13;;
36931;SDS011;22847;42.654;23.370;2024-01-25T13:52:37;7.95;;;2.95;;
36931;SDS011;22847;42.654;23.370;2024-01-25T13:55:03;13.80;;;3.53;;
36931;SDS011;22847;42.654;23.370;2024-01-25T13:57:28;11.23;;;3.47;;
36931;SDS011;22847;42.654;23.370;2024-01-25T13:59:54;18.02;;;3.35;;
36931;SDS011;22847;42.654;23.370;2024-01-25T14:02:19;17.27;;;3.38;;
36931;SDS011;22847;42.654;23.370;2024-01-25T14:04:45;13.90;;;3.45;;
36931;SDS011;22847;42.654;23.370;2024-01-25T14:07:11;13.13;;;2.83;;
36931;SDS011;22847;42.654;23.370;2024-01-25T14:09:37;7.40;;;2.63;;
36931;SDS011;22847;42.654;23.370;2024-01-25T14:12:03;11.55;;;3.42;;
36931;SDS011;22847;42.654;23.370;2024-01-25T14:14:28;18.50;;;3.40;;
36931;SDS011;22847;42.654;23.370;2024-01-25T14:16:54;9.95;;;3.30;;
36931;SDS011;22847;42.654;23.370;2024-01-25T14:19:19;11.00;;;3.83;;
36931;SDS011;22847;42.654;23.370;2024-01-25T14:21:45;14.18;;;3.45;;